Time;durP1;ratioP1;P1;durP2;ratioP2;P2;SDS_P1;SDS_P2;PMS_P1;PMS_P2;Temp;Humidity;BMP_temperature;BMP_pressure;BME280_temperature;BME280_humidity;BME280_pressure;Samples;Min_cycle;Max_cycle;Signal;HPM_P1;HPM_P2
2022/02/28 00:01:08;;;;;;;3.10;2.80;;;;;;;15.15;48.00;101222.42;1793320;79;21485;-68
2022/02/28 00:03:35;;;;;;;4.17;2.90;;;;;;;15.14;48.02;101229.63;1793480;80;20998;-69
2022/02/28 00:06:01;;;;;;;3.67;2.83;;;;;;;15.12;48.05;101231.62;1793522;80;21108;-67
2022/02/28 00:08:30;;;;;;;3.00;2.65;;;;;;;15.11;48.06;101234.45;1806168;77;20990;-68
2022/02/28 00:10:56;;;;;;;2.92;2.65;;;;;;;15.09;48.09;101223.91;1816087;77;21177;-68
2022/02/28 00:13:22;;;;;;;2.42;2.22;;;;;;;15.08;48.09;101230.75;1820439;77;20999;-68
2022/02/28 00:15:49;;;;;;;3.17;2.72;;;;;;;15.07;48.09;101234.45;1852519;77;21037;-69
2022/02/28 00:18:15;;;;;;;2.95;2.65;;;;;;;15.06;48.12;101229.58;1822913;78;21009;-68
2022/02/28 00:20:43;;;;;;;2.83;2.45;;;;;;;15.05;48.13;101231.92;1819155;78;20992;-68
2022/02/28 00:23:11;;;;;;;3.77;2.95;;;;;;;15.03;48.13;101228.58;1824414;78;21985;-68
2022/02/28 00:25:39;;;;;;;4.53;3.70;;;;;;;15.03;48.16;101229.91;1836064;77;21032;-68
2022/02/28 00:28:07;;;;;;;5.37;4.75;;;;;;;15.02;48.17;101237.59;1825800;78;21061;-68
2022/02/28 00:30:36;;;;;;;6.12;5.53;;;;;;;15.01;48.18;101225.70;1825829;78;21060;-68
2022/02/28 00:33:03;;;;;;;7.12;6.05;;;;;;;15.00;48.18;101228.88;1825903;78;21049;-67
2022/02/28 00:35:30;;;;;;;6.80;5.92;;;;;;;14.99;48.21;101225.02;1825982;78;21173;-68
2022/02/28 00:37:59;;;;;;;6.47;5.85;;;;;;;14.96;48.22;101223.52;1825655;78;21475;-68
2022/02/28 00:40:25;;;;;;;6.78;5.97;;;;;;;14.97;48.21;101227.88;1857464;77;21052;-67
2022/02/28 00:42:51;;;;;;;7.33;6.53;;;;;;;14.94;48.24;101229.02;1802485;76;21009;-69
2022/02/28 00:45:20;;;;;;;6.92;6.22;;;;;;;14.93;48.24;101226.50;1773620;80;21508;-67
2022/02/28 00:47:48;;;;;;;7.37;6.15;;;;;;;14.92;48.28;101227.52;1793322;80;21134;-69
2022/02/28 00:50:14;;;;;;;7.78;6.17;;;;;;;14.91;48.29;101231.17;1793218;80;20978;-67
2022/02/28 00:52:41;;;;;;;6.33;5.67;;;;;;;14.89;48.31;101230.50;1793459;79;21069;-69
2022/02/28 00:55:10;;;;;;;6.87;6.17;;;;;;;14.89;48.32;101231.84;1793366;80;20986;-68
2022/02/28 00:57:36;;;;;;;7.47;6.50;;;;;;;14.88;48.33;101232.86;1793553;80;21010;-68
2022/02/28 01:00:10;;;;;;;7.08;6.10;;;;;;;14.86;48.34;101230.33;1794210;78;21030;-69
2022/02/28 01:02:36;;;;;;;7.17;5.75;;;;;;;14.86;48.34;101238.86;1793364;80;21505;-68
2022/02/28 01:05:06;;;;;;;6.60;5.87;;;;;;;14.84;48.36;101243.03;1793376;79;20967;-67
2022/02/28 01:07:34;;;;;;;7.05;5.53;;;;;;;14.82;48.35;101239.68;1773525;80;21054;-68
2022/02/28 01:10:01;;;;;;;7.62;6.03;;;;;;;14.82;48.39;101240.19;1793468;78;20960;-68
2022/02/28 01:12:29;;;;;;;7.65;6.85;;;;;;;14.80;48.39;101240.34;1823161;77;21521;-69
2022/02/28 01:14:56;;;;;;;6.67;5.70;;;;;;;14.81;48.39;101241.17;1846266;77;21025;-68
2022/02/28 01:17:23;;;;;;;7.00;5.50;;;;;;;14.78;48.41;101239.66;1793329;80;21041;-67
2022/02/28 01:19:51;;;;;;;6.17;5.58;;;;;;;14.78;48.41;101234.81;1796117;79;21011;-67
2022/02/28 01:22:18;;;;;;;5.65;5.05;;;;;;;14.77;48.41;101239.30;1799299;79;21526;-69
2022/02/28 01:24:45;;;;;;;5.95;5.03;;;;;;;14.76;48.42;101237.64;1799670;79;21092;-68
2022/02/28 01:27:11;;;;;;;6.28;5.40;;;;;;;14.74;48.43;101233.78;1798815;78;21013;-68
2022/02/28 01:29:37;;;;;;;7.37;5.50;;;;;;;14.74;48.44;101232.45;1844304;77;21048;-69
2022/02/28 01:32:05;;;;;;;6.45;5.47;;;;;;;14.73;48.46;101225.91;1815985;78;21001;-68
2022/02/28 01:34:32;;;;;;;5.65;5.08;;;;;;;14.73;48.46;101232.60;1799271;79;21013;-68
2022/02/28 01:36:58;;;;;;;7.37;5.12;;;;;;;14.71;48.45;101232.75;1799275;79;21102;-67
2022/02/28 01:39:24;;;;;;;6.47;5.37;;;;;;;14.70;48.46;101231.60;1816158;78;21045;-67
2022/02/28 01:41:51;;;;;;;6.60;5.50;;;;;;;14.69;48.47;101238.77;1815818;78;20986;-68
2022/02/28 01:44:17;;;;;;;5.72;4.95;;;;;;;14.68;48.48;101238.91;1832001;77;21541;-68
2022/02/28 01:46:44;;;;;;;6.17;5.55;;;;;;;14.68;48.50;101245.60;1832044;77;21043;-68
2022/02/28 01:49:11;;;;;;;5.50;5.00;;;;;;;14.67;48.50;101249.29;1827526;78;21577;-68
2022/02/28 01:51:38;;;;;;;5.87;5.00;;;;;;;14.65;48.49;101248.10;1757777;79;21080;-67
2022/02/28 01:54:06;;;;;;;5.90;5.30;;;;;;;14.64;48.50;101243.77;1799650;79;21453;-68
2022/02/28 01:56:34;;;;;;;5.50;4.90;;;;;;;14.64;48.50;101246.92;1799418;79;21068;-68
2022/02/28 01:59:00;;;;;;;6.00;5.03;;;;;;;14.62;48.50;101248.44;1799419;79;21603;-68
2022/02/28 02:01:27;;;;;;;5.35;4.85;;;;;;;14.62;48.53;101253.78;1799214;79;21057;-68
2022/02/28 02:03:53;;;;;;;5.45;4.92;;;;;;;14.60;48.53;101248.23;1783597;79;21564;-70
2022/02/28 02:06:20;;;;;;;5.90;5.00;;;;;;;14.59;48.53;101247.91;1800399;78;21040;-67
2022/02/28 02:08:47;;;;;;;5.50;4.87;;;;;;;14.58;48.53;101244.38;1799438;79;21481;-68
2022/02/28 02:11:13;;;;;;;5.58;4.97;;;;;;;14.58;48.55;101240.87;1799285;78;21045;-69
2022/02/28 02:13:40;;;;;;;6.55;5.50;;;;;;;14.55;48.55;101240.16;1801749;78;22755;-68
2022/02/28 02:16:08;;;;;;;6.22;5.25;;;;;;;14.54;48.57;101246.99;1799084;79;21097;-69
2022/02/28 02:18:35;;;;;;;6.15;5.10;;;;;;;14.53;48.60;101245.33;1834322;76;21482;-67
2022/02/28 02:21:01;;;;;;;5.30;4.80;;;;;;;14.52;48.60;101245.81;1833642;77;21494;-68
2022/02/28 02:23:29;;;;;;;5.90;4.78;;;;;;;14.50;48.63;101251.81;1805877;79;21496;-68
2022/02/28 02:25:56;;;;;;;6.47;4.70;;;;;;;14.50;48.60;101257.66;1799320;79;21150;-69
2022/02/28 02:28:24;;;;;;;5.42;4.47;;;;;;;14.48;48.63;101257.81;1799248;79;21037;-68
2022/02/28 02:30:54;;;;;;;5.15;4.47;;;;;;;14.47;48.63;101259.33;1799430;79;21517;-68
2022/02/28 02:33:22;;;;;;;4.97;4.35;;;;;;;14.46;48.66;101256.30;1799014;79;21029;-67
2022/02/28 02:35:52;;;;;;;6.03;4.85;;;;;;;14.44;48.67;101253.78;1798190;77;21458;-67
2022/02/28 02:38:19;;;;;;;5.72;4.75;;;;;;;14.43;48.66;101257.94;1840655;77;22184;-69
2022/02/28 02:40:47;;;;;;;5.28;4.78;;;;;;;14.41;48.65;101255.45;1772935;79;21021;-69
2022/02/28 02:43:14;;;;;;;6.70;6.00;;;;;;;14.41;48.69;101256.78;1783520;79;21536;-68
2022/02/28 02:45:40;;;;;;;6.55;5.58;;;;;;;14.40;48.69;101263.11;1799333;79;20985;-68
2022/02/28 02:48:14;;;;;;;6.55;5.92;;;;;;;14.39;48.70;101260.59;1783572;79;21667;-68
2022/02/28 02:50:40;;;;;;;;;;;;;;;14.37;48.70;101263.45;1802175;79;21473;-68
2022/02/28 02:53:07;;;;;;;5.83;5.08;;;;;;;14.36;48.72;101261.24;1783614;79;20169;-69
2022/02/28 02:55:34;;;;;;;6.40;5.53;;;;;;;14.33;48.73;101261.58;1783610;79;20993;-69
2022/02/28 02:58:01;;;;;;;6.50;5.60;;;;;;;14.32;48.75;101257.20;1815011;78;20962;-68
2022/02/28 03:00:28;;;;;;;6.45;5.58;;;;;;;14.31;48.77;101255.55;1831968;78;21053;-68
2022/02/28 03:02:59;;;;;;;7.15;5.60;;;;;;;14.30;48.77;101251.18;1800443;78;21043;-68
2022/02/28 03:05:25;;;;;;;5.92;5.12;;;;;;;14.30;48.79;101254.36;1815831;78;21017;-67
2022/02/28 03:07:52;;;;;;;6.58;5.20;;;;;;;14.29;48.78;101254.00;1831831;78;20986;-68
2022/02/28 03:10:19;;;;;;;5.62;5.00;;;;;;;14.28;48.80;101251.84;1815590;78;21045;-68
2022/02/28 03:12:46;;;;;;;5.65;5.10;;;;;;;14.27;48.79;101251.48;1831911;78;21466;-68
2022/02/28 03:15:13;;;;;;;6.20;5.08;;;;;;;14.26;48.79;101249.81;1805377;78;21065;-68
2022/02/28 03:17:39;;;;;;;5.20;4.65;;;;;;;14.26;48.80;101251.66;1831811;78;21022;-67
2022/02/28 03:20:08;;;;;;;5.42;4.87;;;;;;;14.25;48.81;101247.29;1830887;76;21021;-67
2022/02/28 03:22:36;;;;;;;5.78;5.03;;;;;;;14.24;48.80;101248.30;1831336;77;21017;-67
2022/02/28 03:25:04;;;;;;;5.40;4.83;;;;;;;14.23;48.82;101250.11;1840151;77;21014;-68
2022/02/28 03:27:32;;;;;;;5.47;4.70;;;;;;;14.22;48.82;101249.79;1828914;78;21088;-68
2022/02/28 03:29:58;;;;;;;5.65;5.08;;;;;;;14.21;48.83;101248.09;1810661;78;21462;-68
2022/02/28 03:32:25;;;;;;;6.10;5.20;;;;;;;14.21;48.83;101249.94;1777894;79;20989;-69
2022/02/28 03:35:38;;;;;;;5.17;4.67;;;;;;;14.23;48.84;101250.11;1870462;76;28559;-68
2022/02/28 03:38:05;;;;;;;4.72;4.22;;;;;;;14.19;48.83;101244.73;1826268;78;20992;-68
2022/02/28 03:40:33;;;;;;;5.53;4.78;;;;;;;14.18;48.82;101248.42;1826551;78;21764;-68
2022/02/28 03:43:05;;;;;;;5.50;4.70;;;;;;;14.16;48.84;101247.23;1842326;77;20957;-68
2022/02/28 03:45:30;;;;;;;4.70;4.20;;;;;;;14.15;48.85;101246.87;1825643;78;20962;-68
2022/02/28 03:47:56;;;;;;;6.03;4.78;;;;;;;14.14;48.84;101248.39;1825015;78;21000;-69
2022/02/28 03:50:30;;;;;;;5.53;4.90;;;;;;;14.13;48.84;101248.87;1762281;80;21036;-69
2022/02/28 03:52:57;;;;;;;4.70;4.28;;;;;;;14.12;48.88;101253.05;1794101;80;21139;-69
2022/02/28 03:55:25;;;;;;;5.45;4.83;;;;;;;14.11;48.88;101246.84;1794474;79;20938;-68
2022/02/28 03:57:51;;;;;;;5.10;4.58;;;;;;;14.10;48.88;101253.20;1774129;80;21029;-68
2022/02/28 04:00:19;;;;;;;4.58;4.17;;;;;;;14.09;48.90;101252.02;1794176;80;21128;-67
2022/02/28 04:02:45;;;;;;;5.50;4.67;;;;;;;14.08;48.90;101248.98;1794192;80;21576;-67
2022/02/28 04:05:12;;;;;;;5.30;4.75;;;;;;;14.07;48.90;101252.16;1795139;78;21198;-68
2022/02/28 04:07:40;;;;;;;6.12;4.47;;;;;;;14.06;48.91;101247.83;1794016;80;20994;-68
2022/02/28 04:10:07;;;;;;;5.03;4.40;;;;;;;14.05;48.91;101247.47;1783160;78;21514;-68
2022/02/28 04:12:36;;;;;;;5.00;4.50;;;;;;;14.04;48.92;101253.83;1826447;78;21479;-68
2022/02/28 04:15:04;;;;;;;5.00;4.50;;;;;;;14.04;48.91;101256.50;1805844;78;21080;-68
2022/02/28 04:17:33;;;;;;;5.08;4.28;;;;;;;14.02;48.93;101255.78;1826459;78;21076;-68
2022/02/28 04:20:12;;;;;;;4.12;3.70;;;;;;;14.01;48.91;101258.13;1785706;78;21058;-67
2022/02/28 04:22:39;;;;;;;4.72;4.15;;;;;;;14.00;48.92;101260.44;1791428;79;21005;-68
2022/02/28 04:25:07;;;;;;;4.42;3.70;;;;;;;13.98;48.95;101262.43;1793949;79;21054;-69
2022/02/28 04:27:36;;;;;;;5.12;4.08;;;;;;;13.96;48.94;101262.61;1806828;77;20997;-69
2022/02/28 04:30:05;;;;;;;5.22;3.98;;;;;;;13.96;48.95;101264.42;1839370;77;21118;-68
2022/02/28 04:32:31;;;;;;;4.60;4.10;;;;;;;13.94;48.95;101267.23;1826371;78;21001;-69
2022/02/28 04:35:00;;;;;;;6.00;4.22;;;;;;;13.94;48.96;101271.24;1826521;77;20989;-67
2022/02/28 04:37:28;;;;;;;4.28;3.87;;;;;;;13.93;48.97;101270.91;1808217;78;21548;-68
2022/02/28 04:39:56;;;;;;;4.92;3.85;;;;;;;13.93;48.97;101281.60;1811907;78;21158;-69
2022/02/28 04:42:23;;;;;;;5.12;4.12;;;;;;;13.92;48.96;101284.42;1794008;80;21122;-69
2022/02/28 04:44:50;;;;;;;3.98;3.33;;;;;;;13.91;48.97;101282.76;1794236;80;21025;-68
2022/02/28 04:47:17;;;;;;;4.45;3.98;;;;;;;13.90;48.98;101279.22;1799626;77;21394;-69
2022/02/28 04:50:03;;;;;;;3.95;3.47;;;;;;;13.89;48.96;101287.42;1817325;77;20990;-68
2022/02/28 04:52:31;;;;;;;4.65;4.08;;;;;;;13.88;48.98;101297.23;1817700;77;21013;-68
2022/02/28 04:54:57;;;;;;;3.95;3.30;;;;;;;13.85;48.99;101290.87;1818066;77;21500;-69
2022/02/28 04:57:25;;;;;;;3.58;3.25;;;;;;;13.85;48.99;101288.21;1781913;79;21088;-68
2022/02/28 04:59:52;;;;;;;3.75;3.12;;;;;;;13.84;49.01;101299.88;1793704;79;21037;-68
2022/02/28 05:02:19;;;;;;;3.92;3.50;;;;;;;13.82;49.00;101299.19;1793662;79;21044;-68
2022/02/28 05:04:45;;;;;;;4.08;3.50;;;;;;;13.83;49.02;101302.22;1793667;80;21077;-69
2022/02/28 05:07:12;;;;;;;5.55;3.27;;;;;;;13.82;49.01;101300.52;1775693;80;21266;-68
2022/02/28 05:09:41;;;;;;;4.25;3.60;;;;;;;13.81;49.01;101289.51;1793750;78;21502;-69
2022/02/28 05:12:08;;;;;;;4.08;3.67;;;;;;;13.81;48.98;101291.31;1775722;80;21521;-69
2022/02/28 05:14:35;;;;;;;3.83;3.42;;;;;;;13.80;49.00;101297.16;1798549;78;21065;-67
2022/02/28 05:17:01;;;;;;;3.83;3.40;;;;;;;13.80;49.01;101294.49;1826030;78;21030;-68
2022/02/28 05:19:29;;;;;;;3.15;2.85;;;;;;;13.79;49.02;101298.17;1825565;78;21074;-69
2022/02/28 05:21:57;;;;;;;3.70;3.27;;;;;;;13.78;49.02;101292.47;1822425;78;20996;-68
2022/02/28 05:24:23;;;;;;;4.42;3.72;;;;;;;13.78;49.02;101294.31;1820086;78;21670;-68
2022/02/28 05:26:50;;;;;;;3.22;2.92;;;;;;;13.78;49.03;101304.99;1806103;78;20994;-68
2022/02/28 05:29:17;;;;;;;3.50;3.20;;;;;;;13.76;49.05;101307.30;1826418;78;20974;-68
2022/02/28 05:31:43;;;;;;;3.52;3.22;;;;;;;13.76;49.04;101309.97;1800855;78;21170;-69
2022/02/28 05:34:11;;;;;;;3.77;3.37;;;;;;;13.76;49.05;101300.63;1756330;77;21077;-68
2022/02/28 05:36:38;;;;;;;3.30;3.00;;;;;;;13.76;49.03;101306.47;1820704;78;21065;-68
2022/02/28 05:39:06;;;;;;;4.58;3.70;;;;;;;13.75;49.04;101308.31;1818196;78;21038;-68
2022/02/28 05:41:33;;;;;;;3.22;2.92;;;;;;;13.75;49.05;101320.33;1776214;78;21077;-67
2022/02/28 05:44:01;;;;;;;3.83;3.50;;;;;;;13.76;49.05;101317.16;1820722;77;21129;-68
2022/02/28 05:46:28;;;;;;;4.70;3.45;;;;;;;13.75;49.05;101314.13;1820663;78;21034;-68
2022/02/28 05:48:59;;;;;;;3.62;2.95;;;;;;;13.75;49.05;101316.33;1790927;78;21053;-68
2022/02/28 05:51:27;;;;;;;3.52;3.10;;;;;;;13.75;49.05;101313.66;1770180;80;21528;-68
2022/02/28 05:53:54;;;;;;;3.95;3.50;;;;;;;13.74;49.03;101314.63;1814827;78;21190;-68
2022/02/28 05:56:20;;;;;;;3.35;3.05;;;;;;;13.75;49.06;101316.80;1824424;78;21946;-69
2022/02/28 05:58:47;;;;;;;3.22;2.92;;;;;;;13.75;49.05;101315.46;1820477;78;20955;-68
2022/02/28 06:01:13;;;;;;;3.52;3.05;;;;;;;13.76;49.07;101320.66;1820503;78;21030;-69
2022/02/28 06:03:40;;;;;;;3.08;2.77;;;;;;;13.76;49.05;101322.50;1802239;78;21521;-68
2022/02/28 06:06:08;;;;;;;4.17;3.15;;;;;;;13.76;49.06;101315.82;1789497;77;21025;-68
2022/02/28 06:08:34;;;;;;;4.58;3.37;;;;;;;13.77;49.04;101321.49;1788101;80;21109;-68
2022/02/28 06:11:01;;;;;;;2.92;2.62;;;;;;;13.79;49.04;101317.34;1791233;78;21501;-70
2022/02/28 06:13:29;;;;;;;3.20;2.90;;;;;;;13.79;49.00;101317.34;1820615;77;20995;-68
2022/02/28 06:15:55;;;;;;;2.72;2.45;;;;;;;13.79;49.01;101322.20;1820824;77;21494;-68
2022/02/28 06:18:21;;;;;;;4.00;3.00;;;;;;;13.81;48.98;101320.70;1820708;78;21040;-69
2022/02/28 06:20:48;;;;;;;3.12;2.83;;;;;;;13.81;48.97;101317.55;1826475;77;21095;-70
2022/02/28 06:23:15;;;;;;;3.33;2.55;;;;;;;13.82;48.97;101320.55;1788637;78;20982;-71
2022/02/28 06:25:45;;;;;;;3.37;2.72;;;;;;;13.83;48.95;101324.92;1788282;80;21076;-69
2022/02/28 06:28:12;;;;;;;3.62;2.65;;;;;;;13.84;48.95;101322.58;1788646;80;21520;-68
2022/02/28 06:30:40;;;;;;;2.87;2.55;;;;;;;13.87;48.93;101329.44;1770575;80;21065;-67
2022/02/28 06:33:08;;;;;;;3.72;2.70;;;;;;;13.86;48.92;101320.59;1788169;80;20978;-68
2022/02/28 06:35:35;;;;;;;2.98;2.58;;;;;;;13.88;48.92;101331.13;1784565;80;21053;-69
2022/02/28 06:38:01;;;;;;;2.87;2.37;;;;;;;13.89;48.91;101338.17;1798391;78;21018;-68
2022/02/28 06:40:28;;;;;;;2.90;2.60;;;;;;;13.89;48.89;101344.34;1819966;78;21509;-68
2022/02/28 06:42:55;;;;;;;3.10;2.75;;;;;;;13.90;48.88;101344.67;1839791;78;21026;-68
2022/02/28 06:45:24;;;;;;;3.22;2.83;;;;;;;13.90;48.87;101346.02;1818560;78;21568;-69
2022/02/28 06:47:51;;;;;;;3.33;2.85;;;;;;;13.92;48.86;101347.20;1846470;77;20967;-69
2022/02/28 06:50:18;;;;;;;3.10;2.72;;;;;;;13.93;48.85;101340.88;1839627;78;21597;-68
2022/02/28 06:52:44;;;;;;;2.80;2.45;;;;;;;13.94;48.81;101341.21;1839834;78;21034;-68
2022/02/28 06:55:11;;;;;;;3.60;3.00;;;;;;;13.94;48.81;101332.69;1813614;79;21057;-69
2022/02/28 06:57:38;;;;;;;3.00;2.60;;;;;;;13.96;48.79;101338.75;1816007;78;21145;-67
2022/02/28 07:00:06;;;;;;;2.52;2.30;;;;;;;13.96;48.78;101334.75;1832901;77;20978;-68
2022/02/28 07:02:35;;;;;;;3.58;2.55;;;;;;;13.98;48.77;101330.56;1814153;78;21608;-69
2022/02/28 07:05:09;;;;;;;3.50;2.62;;;;;;;14.00;48.76;101330.42;1814824;78;20994;-70
2022/02/28 07:07:37;;;;;;;2.30;2.10;;;;;;;14.01;48.74;101328.94;1803256;79;21053;-68
2022/02/28 07:10:06;;;;;;;2.50;2.30;;;;;;;14.02;48.74;101342.63;1806068;79;21199;-69
2022/02/28 07:12:32;;;;;;;2.42;2.08;;;;;;;14.04;48.72;101338.47;1783238;79;21029;-69
2022/02/28 07:14:59;;;;;;;2.42;2.15;;;;;;;14.04;48.71;101339.34;1771900;80;21534;-69
2022/02/28 07:17:27;;;;;;;2.50;2.25;;;;;;;14.07;48.70;101342.19;1786848;79;21026;-67
2022/02/28 07:19:54;;;;;;;2.33;2.10;;;;;;;14.07;48.70;101335.51;1814597;79;21584;-69
2022/02/28 07:22:20;;;;;;;2.52;2.33;;;;;;;14.09;48.69;101337.53;1814731;79;21135;-68
2022/02/28 07:24:46;;;;;;;2.85;2.27;;;;;;;14.10;48.67;101332.52;1815023;79;21041;-69
2022/02/28 07:27:13;;;;;;;2.55;2.05;;;;;;;14.11;48.66;101341.72;1803182;79;21062;-69
2022/02/28 07:29:39;;;;;;;2.52;2.33;;;;;;;14.13;48.66;101340.23;1792353;79;21089;-72
2022/02/28 07:32:07;;;;;;;2.40;1.95;;;;;;;14.14;48.65;101336.59;1782373;80;21104;-69
2022/02/28 07:34:33;;;;;;;2.80;2.10;;;;;;;14.16;48.64;101343.95;1783027;79;21104;-69
2022/02/28 07:37:00;;;;;;;2.50;2.10;;;;;;;14.18;48.62;101349.13;1793906;80;21034;-69
2022/02/28 07:39:26;;;;;;;2.42;2.22;;;;;;;14.19;48.59;101338.28;1823448;78;20983;-68
2022/02/28 07:41:56;;;;;;;2.10;1.90;;;;;;;14.21;48.60;101347.50;1824430;78;21511;-70
2022/02/28 07:44:21;;;;;;;2.40;2.08;;;;;;;14.22;48.54;101342.51;1838046;77;21037;-69
2022/02/28 07:46:48;;;;;;;2.22;2.02;;;;;;;14.24;48.51;101342.69;1791923;79;21373;-70
2022/02/28 07:49:14;;;;;;;2.50;2.30;;;;;;;14.24;48.52;101340.02;1793513;80;20974;-70
2022/02/28 07:51:40;;;;;;;2.37;2.17;;;;;;;14.27;48.50;101345.03;1793686;80;21006;-68
2022/02/28 07:54:07;;;;;;;2.70;2.10;;;;;;;14.28;48.49;101344.05;1775989;80;21016;-70
2022/02/28 07:56:33;;;;;;;2.62;2.20;;;;;;;14.30;48.47;101345.25;1793758;80;21032;-69
2022/02/28 07:59:00;;;;;;;2.40;2.10;;;;;;;14.31;48.44;101346.91;1793733;80;21044;-69
2022/02/28 08:01:26;;;;;;;2.42;2.10;;;;;;;14.32;48.42;101352.11;1775757;80;20998;-69
2022/02/28 08:03:52;;;;;;;3.30;2.12;;;;;;;14.33;48.41;101345.78;1811413;77;20966;-69
2022/02/28 08:06:20;;;;;;;2.47;2.20;;;;;;;14.35;48.40;101346.94;1834570;77;21041;-71
2022/02/28 08:08:47;;;;;;;2.00;1.80;;;;;;;14.36;48.39;101339.28;1826061;78;21025;-70
2022/02/28 08:11:14;;;;;;;2.60;1.87;;;;;;;14.39;48.37;101343.00;1783624;79;21891;-68
2022/02/28 08:13:42;;;;;;;1.92;1.77;;;;;;;14.40;48.34;101341.98;1793589;79;21018;-68
2022/02/28 08:16:09;;;;;;;2.00;1.80;;;;;;;14.43;48.33;101344.84;1797651;78;21088;-69
2022/02/28 08:18:35;;;;;;;2.02;1.82;;;;;;;14.44;48.33;101346.53;1822320;78;21012;-68
2022/02/28 08:21:01;;;;;;;2.27;2.08;;;;;;;14.45;48.31;101349.06;1810239;78;21025;-68
2022/02/28 08:23:28;;;;;;;2.70;2.10;;;;;;;14.47;48.32;101355.59;1796640;78;21050;-69
2022/02/28 08:25:54;;;;;;;2.12;1.55;;;;;;;14.49;48.28;101349.59;1807638;78;21029;-69
2022/02/28 08:28:21;;;;;;;2.45;1.90;;;;;;;14.51;48.27;101340.92;1826050;78;21044;-69
2022/02/28 08:30:47;;;;;;;3.27;1.80;;;;;;;14.52;48.27;101347.42;1826086;78;21013;-69
2022/02/28 08:33:15;;;;;;;2.10;1.90;;;;;;;14.57;48.25;101348.34;1826175;78;21037;-69
2022/02/28 08:35:42;;;;;;;2.47;2.25;;;;;;;14.58;48.23;101349.18;1805759;78;21805;-68
2022/02/28 08:38:10;;;;;;;3.22;2.30;;;;;;;14.61;48.23;101351.55;1806602;77;20986;-68
2022/02/28 08:40:36;;;;;;;2.90;2.20;;;;;;;14.64;48.22;101349.89;1790952;80;21501;-70
2022/02/28 08:43:03;;;;;;;2.52;2.20;;;;;;;14.65;48.25;101341.72;1770951;80;21054;-69
2022/02/28 08:45:29;;;;;;;2.80;2.00;;;;;;;14.69;48.28;101347.59;1770754;80;21029;-69
2022/02/28 08:47:56;;;;;;;2.15;1.95;;;;;;;14.72;48.35;101344.12;1809385;77;21197;-69
2022/02/28 08:50:22;;;;;;;1.95;1.75;;;;;;;14.76;48.42;101337.97;1832434;77;20966;-69
2022/02/28 08:52:49;;;;;;;2.20;1.72;;;;;;;14.80;48.54;101344.67;1821079;77;21508;-69
2022/02/28 08:55:15;;;;;;;2.27;1.87;;;;;;;14.85;48.60;101333.48;1802325;78;21076;-68
2022/02/28 08:57:42;;;;;;;2.33;1.90;;;;;;;14.89;48.54;101337.05;1799106;78;21044;-69
2022/02/28 09:00:10;;;;;;;2.00;1.80;;;;;;;14.94;48.47;101331.22;1823314;78;21479;-69
2022/02/28 09:02:37;;;;;;;2.10;1.50;;;;;;;14.99;48.48;101333.41;1823152;78;21018;-69
2022/02/28 09:05:05;;;;;;;1.70;1.60;;;;;;;15.05;48.36;101326.11;1823352;78;21568;-71
2022/02/28 09:07:32;;;;;;;1.85;1.60;;;;;;;15.09;48.31;101336.83;1823074;78;21062;-69
2022/02/28 09:09:59;;;;;;;2.85;2.02;;;;;;;15.14;48.25;101338.03;1796795;78;21564;-70
2022/02/28 09:12:25;;;;;;;1.87;1.75;;;;;;;15.20;48.11;101335.22;1777827;79;21127;-69
2022/02/28 09:14:53;;;;;;;2.62;2.00;;;;;;;15.26;48.03;101337.73;1796817;77;21065;-70
2022/02/28 09:17:20;;;;;;;2.02;1.77;;;;;;;15.31;47.95;101320.70;1801175;78;21033;-70
2022/02/28 09:19:46;;;;;;;2.50;1.65;;;;;;;15.36;47.89;101330.95;1819707;77;21006;-69
2022/02/28 09:22:13;;;;;;;2.25;2.00;;;;;;;15.41;47.84;101329.95;1802639;78;21596;-70
2022/02/28 09:24:40;;;;;;;1.85;1.60;;;;;;;15.47;47.87;101331.49;1818064;78;21120;-68
2022/02/28 09:27:08;;;;;;;1.98;1.80;;;;;;;15.53;47.90;101325.48;1816557;79;21017;-68
2022/02/28 09:29:34;;;;;;;2.00;1.77;;;;;;;15.60;48.04;101320.30;1797239;78;21006;-69
2022/02/28 09:32:03;;;;;;;1.80;1.70;;;;;;;15.67;48.16;101321.34;1823194;78;20970;-70
2022/02/28 09:34:30;;;;;;;1.92;1.70;;;;;;;15.73;48.65;101314.52;1823262;78;21032;-69
2022/02/28 09:36:57;;;;;;;1.82;1.65;;;;;;;15.81;48.76;101315.05;1815929;78;21855;-69
2022/02/28 09:39:23;;;;;;;2.02;1.55;;;;;;;15.88;48.84;101309.38;1814433;79;22090;-69
2022/02/28 09:42:08;;;;;;;2.12;1.92;;;;;;;15.96;49.09;101304.53;1814854;79;21013;-70
2022/02/28 09:44:43;;;;;;;1.47;1.35;;;;;;;16.04;49.08;101302.69;1756902;79;21541;-69
2022/02/28 09:47:14;;;;;;;2.08;1.85;;;;;;;16.12;49.11;101301.34;1779173;79;20998;-69
2022/02/28 09:49:52;;;;;;;1.85;1.70;;;;;;;16.21;49.30;101305.39;1748473;80;21095;-68
2022/02/28 09:52:37;;;;;;;1.92;1.80;;;;;;;16.30;49.43;101305.70;1808178;78;21474;-70
2022/02/28 09:55:10;;;;;;;2.05;1.85;;;;;;;16.40;49.72;101306.88;1811021;78;21562;-69
2022/02/28 09:57:54;;;;;;;2.02;1.90;;;;;;;16.48;49.82;101308.23;1828650;77;21506;-69
2022/02/28 10:00:26;;;;;;;2.00;1.70;;;;;;;16.57;50.14;101295.13;1813776;78;21038;-70
2022/02/28 10:02:58;;;;;;;2.15;1.92;;;;;;;16.66;50.23;101303.51;1781439;79;21032;-69
2022/02/28 10:05:24;;;;;;;1.82;1.67;;;;;;;16.75;50.45;101298.98;1771046;80;21010;-70
2022/02/28 10:07:58;;;;;;;1.95;1.67;;;;;;;16.84;50.36;101290.42;1782382;80;21032;-68
2022/02/28 10:10:26;;;;;;;1.70;1.60;;;;;;;16.94;50.54;101287.06;1780359;79;21076;-69
2022/02/28 10:12:53;;;;;;;1.75;1.65;;;;;;;17.03;50.46;101282.48;1807918;79;21173;-68
2022/02/28 10:15:24;;;;;;;1.95;1.75;;;;;;;17.12;50.44;101278.77;1818161;78;21985;-71
2022/02/28 10:17:58;;;;;;;1.85;1.75;;;;;;;17.21;50.33;101275.05;1803054;79;20979;-69
2022/02/28 10:20:36;;;;;;;2.20;2.00;;;;;;;17.31;50.19;101269.47;1793403;79;21034;-69
2022/02/28 10:23:09;;;;;;;1.50;1.40;;;;;;;17.40;50.01;101263.53;1771798;80;21066;-68
2022/02/28 10:25:45;;;;;;;2.00;1.90;;;;;;;17.50;49.69;101264.17;1769756;80;20986;-70
2022/02/28 10:28:25;;;;;;;2.05;1.70;;;;;;;17.61;49.62;101261.57;1732934;79;21439;-68
2022/02/28 10:31:09;;;;;;;1.72;1.62;;;;;;;17.72;49.55;101260.34;1780505;80;20998;-68
2022/02/28 10:33:55;;;;;;;1.60;1.50;;;;;;;17.82;49.17;101253.70;1782606;80;21057;-68
2022/02/28 10:36:27;;;;;;;1.57;1.47;;;;;;;17.92;49.00;101246.77;1773195;79;21739;-69
2022/02/28 10:38:57;;;;;;;1.70;1.60;;;;;;;18.03;48.72;101250.91;1782529;80;21065;-68
2022/02/28 10:41:36;;;;;;;1.75;1.65;;;;;;;18.14;48.46;101253.66;1782420;80;21124;-69
2022/02/28 10:44:03;;;;;;;1.60;1.50;;;;;;;18.23;48.37;101245.84;1782338;80;21034;-68
2022/02/28 10:46:33;;;;;;;1.72;1.50;;;;;;;18.34;48.16;101241.90;1784138;79;21064;-69
2022/02/28 10:49:16;;;;;;;1.55;1.45;;;;;;;18.43;48.04;101241.63;1814698;79;21561;-69
2022/02/28 10:51:48;;;;;;;1.62;1.47;;;;;;;18.54;47.87;101247.06;1814650;78;20994;-68
2022/02/28 10:54:32;;;;;;;2.05;1.87;;;;;;;18.64;47.71;101242.27;1795531;77;21846;-69
2022/02/28 10:57:11;;;;;;;1.57;1.47;;;;;;;18.74;47.55;101244.68;1783459;78;21006;-68
2022/02/28 10:59:43;;;;;;;1.80;1.70;;;;;;;18.85;47.41;101243.39;1829099;78;21018;-68
2022/02/28 11:02:30;;;;;;;2.12;1.95;;;;;;;18.96;47.24;101246.97;1775862;80;21030;-69
2022/02/28 11:05:09;;;;;;;1.72;1.62;;;;;;;19.07;47.10;101243.50;1764663;81;21038;-68
2022/02/28 11:07:43;;;;;;;1.55;1.45;;;;;;;19.18;47.02;101238.95;1764628;81;21523;-68
2022/02/28 11:10:11;;;;;;;2.27;1.67;;;;;;;19.28;46.90;101233.27;1760164;81;21054;-69
2022/02/28 11:12:37;;;;;;;1.65;1.55;;;;;;;19.38;46.79;101231.95;1713265;82;21026;-69
2022/02/28 11:15:13;;;;;;;1.70;1.60;;;;;;;19.49;46.72;101225.25;1713211;82;21560;-68
2022/02/28 11:17:41;;;;;;;1.80;1.70;;;;;;;19.59;46.59;101219.02;1742743;81;21010;-69
2022/02/28 11:20:11;;;;;;;1.65;1.52;;;;;;;19.69;46.50;101221.41;1771386;80;21671;-68
2022/02/28 11:22:39;;;;;;;1.82;1.50;;;;;;;19.80;46.41;101218.23;1771883;80;21026;-69
2022/02/28 11:25:11;;;;;;;1.70;1.35;;;;;;;19.91;46.31;101221.42;1764502;81;21030;-69
2022/02/28 11:27:39;;;;;;;1.67;1.57;;;;;;;20.00;46.24;101221.62;1763361;81;21126;-69
2022/02/28 11:30:10;;;;;;;1.62;1.52;;;;;;;20.12;46.16;101221.40;1764563;81;21058;-68